Time;durP1;ratioP1;P1;durP2;ratioP2;P2;SDS_P1;SDS_P2;PMS_P1;PMS_P2;Temp;Humidity;BMP_temperature;BMP_pressure;BME280_temperature;BME280_humidity;BME280_pressure;Samples;Min_cycle;Max_cycle;Signal;HPM_P1;HPM_P2
2022/01/16 00:00:18;;;;;;;23.30;11.25;;;;;;;-0.66;82.48;101752.72;5055018;28;20071;-58
2022/01/16 00:05:33;;;;;;;26.85;14.95;;;;;;;-0.70;82.46;101753.34;5055537;28;20055;-55
2022/01/16 00:08:00;;;;;;;34.75;20.88;;;;;;;-0.73;82.65;101755.72;5055685;28;20052;-57
2022/01/16 00:10:28;;;;;;;32.70;12.73;;;;;;;-0.76;82.79;101745.38;5055662;28;20060;-57
2022/01/16 00:12:59;;;;;;;20.65;10.18;;;;;;;-0.75;82.69;101742.03;5055098;28;20569;-57
2022/01/16 00:15:27;;;;;;;28.88;11.65;;;;;;;-0.76;82.99;101735.19;5053549;28;20127;-57
2022/01/16 00:17:57;;;;;;;25.65;12.95;;;;;;;-0.79;82.91;101735.03;5054888;28;20056;-57
2022/01/16 00:20:26;;;;;;;28.98;13.55;;;;;;;-0.78;82.72;101744.44;5056124;28;20101;-57
2022/01/16 00:22:53;;;;;;;28.40;11.60;;;;;;;-0.78;82.64;101736.78;5060560;28;20926;-57
2022/01/16 00:25:20;;;;;;;24.80;10.68;;;;;;;-0.79;83.10;101735.03;5054733;28;20200;-57
2022/01/16 00:27:49;;;;;;;32.45;13.25;;;;;;;-0.79;82.64;101740.13;5056509;28;20044;-57
2022/01/16 00:30:18;;;;;;;41.83;16.85;;;;;;;-0.81;82.90;101735.75;5062051;28;20052;-57
2022/01/16 00:32:45;;;;;;;37.25;17.08;;;;;;;-0.87;82.90;101736.31;5057622;28;20057;-57
2022/01/16 00:35:13;;;;;;;39.75;17.48;;;;;;;-0.92;82.81;101732.63;5057470;28;20048;-56
2022/01/16 00:37:41;;;;;;;40.17;15.65;;;;;;;-0.95;83.38;101747.75;5065430;28;20048;-57
2022/01/16 00:40:11;;;;;;;44.55;15.48;;;;;;;-0.99;83.20;101741.63;5059561;28;20048;-56
2022/01/16 00:42:38;;;;;;;26.17;11.88;;;;;;;-0.99;83.60;101745.84;5061164;28;20044;-56
2022/01/16 00:45:07;;;;;;;25.00;10.32;;;;;;;-0.98;83.34;101732.31;5056753;28;20067;-56
2022/01/16 00:47:35;;;;;;;20.77;9.63;;;;;;;-0.99;83.30;101705.97;5062760;28;20045;-58
2022/01/16 00:50:02;;;;;;;23.35;9.40;;;;;;;-0.99;83.38;101705.97;5062026;28;20067;-58
2022/01/16 00:52:29;;;;;;;25.92;10.93;;;;;;;-1.00;83.33;101698.28;5059788;28;20049;-59
2022/01/16 00:55:02;;;;;;;28.25;12.50;;;;;;;-1.00;83.06;101708.44;5056657;28;20386;-58
2022/01/16 00:57:29;;;;;;;21.08;9.05;;;;;;;-1.05;83.01;101725.97;5055231;28;20040;-58
2022/01/16 00:59:56;;;;;;;25.30;9.10;;;;;;;-1.06;83.00;101714.06;5059428;28;20131;-58
2022/01/16 01:02:25;;;;;;;20.67;8.70;;;;;;;-1.05;83.36;101725.09;5060746;28;20056;-58
2022/01/16 01:04:52;;;;;;;17.92;7.55;;;;;;;-1.05;82.70;101725.09;5056440;28;20109;-58
2022/01/16 01:07:20;;;;;;;25.27;7.57;;;;;;;-1.07;83.07;101731.78;5060392;28;20040;-58
2022/01/16 01:09:47;;;;;;;17.63;7.50;;;;;;;-1.10;82.96;101712.13;5054576;28;20071;-58
2022/01/16 01:12:25;;;;;;;19.23;8.95;;;;;;;-1.10;83.17;101731.63;5057386;28;20055;-58
2022/01/16 01:15:06;;;;;;;16.10;7.85;;;;;;;-1.06;83.18;101724.22;5057927;28;20088;-57
2022/01/16 01:17:43;;;;;;;21.50;8.32;;;;;;;-1.03;83.43;101713.38;5057824;28;20123;-58
2022/01/16 01:20:12;;;;;;;16.95;8.20;;;;;;;-1.00;83.28;101698.28;5061465;28;20048;-58
2022/01/16 01:22:39;;;;;;;19.92;9.40;;;;;;;-1.00;83.20;101705.91;5063789;28;20554;-58
2022/01/16 01:25:08;;;;;;;15.90;7.07;;;;;;;-1.02;82.74;101699.84;5061397;28;20051;-57
2022/01/16 01:27:35;;;;;;;21.00;7.47;;;;;;;-1.01;82.73;101701.59;5054004;28;22086;-58
2022/01/16 01:30:06;;;;;;;18.20;7.18;;;;;;;-0.98;82.94;101719.59;5055986;28;20052;-58
2022/01/16 01:32:36;;;;;;;13.63;6.97;;;;;;;-0.96;83.04;101741.78;5055907;28;20052;-58
2022/01/16 01:35:04;;;;;;;15.05;7.15;;;;;;;-0.94;82.69;101701.13;5058975;28;20074;-58
2022/01/16 01:37:31;;;;;;;15.77;8.05;;;;;;;-0.91;82.30;101686.03;5055066;28;20414;-58
2022/01/16 01:39:58;;;;;;;18.73;7.65;;;;;;;-0.87;82.94;101695.56;5059603;28;20044;-58
2022/01/16 01:42:31;;;;;;;18.25;9.57;;;;;;;-0.89;82.72;101689.53;5067738;28;20394;-58
2022/01/16 01:53:14;;;;;;;20.20;8.55;;;;;;;-0.84;81.99;101675.38;5062669;28;20083;-59
2022/01/16 01:55:43;;;;;;;18.35;9.10;;;;;;;-0.81;82.28;101675.53;5060415;28;20049;-58
2022/01/16 01:58:11;;;;;;;20.70;7.97;;;;;;;-0.81;82.14;101660.25;5059619;28;20052;-59
2022/01/16 02:00:39;;;;;;;19.25;7.82;;;;;;;-0.80;82.13;101588.19;5059756;28;20056;-59
2022/01/16 02:03:15;;;;;;;21.52;8.30;;;;;;;-0.78;81.85;101571.31;5057368;28;20091;-58
2022/01/16 02:05:44;;;;;;;18.48;8.25;;;;;;;-0.77;81.64;101564.53;5057597;28;20049;-58
2022/01/16 02:08:11;;;;;;;17.15;8.23;;;;;;;-0.80;81.34;101560.16;5061470;28;20070;-57
2022/01/16 02:10:40;;;;;;;18.70;7.65;;;;;;;-0.81;81.38;101547.38;5061150;28;20053;-59
2022/01/16 02:13:11;;;;;;;19.10;8.55;;;;;;;-0.89;81.56;101572.44;5057111;28;20053;-58
2022/01/16 02:27:57;;;;;;;20.10;7.85;;;;;;;-0.94;81.75;101584.06;5058543;28;20406;-57
2022/01/16 02:30:38;;;;;;;20.60;9.00;;;;;;;-0.98;82.32;101589.78;5061222;28;20682;-57
2022/01/16 02:33:23;;;;;;;19.02;8.05;;;;;;;-1.01;82.74;101584.53;5061578;28;20052;-57
2022/01/16 02:35:53;;;;;;;22.10;8.77;;;;;;;-1.01;83.15;101559.09;5063362;28;20474;-59
2022/01/16 02:38:21;;;;;;;20.02;8.07;;;;;;;-1.01;82.94;101569.28;5060680;28;20486;-59
2022/01/16 02:40:57;;;;;;;25.67;8.65;;;;;;;-1.05;83.14;101588.56;5058535;28;20485;-59
2022/01/16 02:43:30;;;;;;;;;;;;;;;-1.03;83.17;101588.69;5062556;28;20052;-59
2022/01/16 02:46:35;;;;;;;25.88;9.10;;;;;;;-1.03;83.30;101601.41;5060158;28;19928;-59
2022/01/16 02:48:58;;;;;;;20.98;7.75;;;;;;;-1.03;83.30;101596.31;5059488;28;20057;-59
2022/01/16 02:51:27;;;;;;;23.40;8.77;;;;;;;-1.02;83.46;101603.16;5056074;28;20512;-58
2022/01/16 02:53:55;;;;;;;27.23;9.73;;;;;;;-1.00;83.35;101591.38;5056451;28;20053;-59
2022/01/16 02:56:24;;;;;;;20.75;8.68;;;;;;;-0.99;83.92;101598.22;5058899;28;20062;-59
2022/01/16 02:58:52;;;;;;;28.15;9.40;;;;;;;-0.98;83.74;101594.88;5058187;28;20053;-59
2022/01/16 03:01:20;;;;;;;20.90;9.10;;;;;;;-1.00;83.93;101597.34;5056532;28;20056;-59
2022/01/16 03:03:47;;;;;;;23.27;8.95;;;;;;;-1.01;84.15;101587.09;5060229;28;20709;-59
2022/01/16 03:06:15;;;;;;;22.80;10.80;;;;;;;-0.97;83.99;101596.63;5057212;28;20048;-57
2022/01/16 03:08:42;;;;;;;21.52;8.93;;;;;;;-0.95;84.23;101595.03;5057717;28;20465;-58
2022/01/16 03:11:25;;;;;;;24.13;9.52;;;;;;;-0.93;84.34;101577.28;5064060;28;20052;-58
2022/01/16 03:13:53;;;;;;;24.27;11.18;;;;;;;-0.93;84.45;101570.53;5065640;28;22113;-58
2022/01/16 03:16:23;;;;;;;24.63;9.68;;;;;;;-0.93;85.12;101562.03;5056726;28;20041;-57
2022/01/16 03:22:02;;;;;;;25.52;10.18;;;;;;;-0.96;87.08;101552.56;5061523;28;20060;-57
2022/01/16 03:24:37;;;;;;;26.23;10.27;;;;;;;-0.98;87.44;101554.16;5061789;28;20067;-57
2022/01/16 03:27:06;;;;;;;29.42;10.43;;;;;;;-1.03;88.12;101553.94;5057982;28;20036;-57
2022/01/16 03:29:35;;;;;;;27.17;10.48;;;;;;;-1.03;88.28;101556.47;5062669;28;20064;-57
2022/01/16 03:32:05;;;;;;;29.02;11.02;;;;;;;-1.01;89.31;101543.81;5056536;28;20040;-58
2022/01/16 03:34:32;;;;;;;32.97;11.82;;;;;;;-1.02;89.73;101536.97;5057665;28;20474;-58
2022/01/16 03:36:59;;;;;;;28.98;11.27;;;;;;;-1.03;89.71;101530.16;5061941;28;20048;-58
2022/01/16 03:39:26;;;;;;;31.35;11.20;;;;;;;-1.05;89.72;101531.72;5055906;28;20131;-58
2022/01/16 03:41:55;;;;;;;27.60;10.02;;;;;;;-1.07;89.40;101523.13;5059194;28;20049;-58
2022/01/16 03:44:23;;;;;;;31.92;11.45;;;;;;;-1.07;89.77;101513.81;5058123;28;20072;-58
2022/01/16 03:46:51;;;;;;;29.23;10.82;;;;;;;-1.07;89.39;101507.84;5061050;28;20040;-58
2022/01/16 03:49:20;;;;;;;31.77;11.80;;;;;;;-1.07;89.66;101503.63;5056379;28;20048;-58
2022/01/16 03:51:50;;;;;;;33.67;11.30;;;;;;;-1.07;89.34;101518.03;5056922;28;20063;-58
2022/01/16 03:54:20;;;;;;;27.63;10.35;;;;;;;-1.09;89.22;101512.00;5055677;28;20953;-58
2022/01/16 03:56:48;;;;;;;33.20;11.20;;;;;;;-1.10;89.28;101502.59;5063073;28;20037;-58
2022/01/16 03:59:16;;;;;;;29.52;11.32;;;;;;;-1.09;89.05;101497.59;5056012;28;20083;-58
2022/01/16 04:01:43;;;;;;;27.48;10.52;;;;;;;-1.09;89.02;101489.09;5063199;28;20045;-58
2022/01/16 04:04:12;;;;;;;29.27;10.32;;;;;;;-1.10;89.18;101479.72;5060276;28;20135;-58
2022/01/16 04:06:39;;;;;;;31.63;12.15;;;;;;;-1.09;88.59;101478.91;5061131;28;20406;-58
2022/01/16 04:09:07;;;;;;;26.98;10.77;;;;;;;-1.08;88.91;101478.13;5062474;28;20057;-58
2022/01/16 04:11:34;;;;;;;23.00;9.95;;;;;;;-1.07;88.96;101477.31;5057166;28;20057;-58
2022/01/16 04:14:07;;;;;;;27.70;10.27;;;;;;;-1.04;88.74;101467.28;5057033;28;20500;-57
2022/01/16 04:16:34;;;;;;;22.88;9.20;;;;;;;-1.05;88.43;101461.31;5059547;28;20051;-58
2022/01/16 04:19:02;;;;;;;24.27;10.07;;;;;;;-1.05;88.46;101456.25;5060958;28;20052;-58
2022/01/16 04:21:30;;;;;;;23.42;9.85;;;;;;;-1.04;87.90;101454.56;5056271;28;20071;-59
2022/01/16 04:23:58;;;;;;;26.80;9.73;;;;;;;-1.05;87.85;101456.25;5061237;28;20049;-59
2022/01/16 04:26:26;;;;;;;29.20;10.07;;;;;;;-1.03;88.45;101466.53;5059424;28;20048;-58
2022/01/16 04:28:54;;;;;;;25.45;10.90;;;;;;;-1.04;88.29;101452.94;5058384;28;20063;-58
2022/01/16 04:31:21;;;;;;;22.63;9.43;;;;;;;-1.03;88.22;101453.81;5058603;28;20044;-58
2022/01/16 04:33:49;;;;;;;31.17;11.05;;;;;;;-1.05;88.29;101445.19;5065851;28;20060;-58
2022/01/16 04:36:16;;;;;;;31.70;11.95;;;;;;;-1.05;88.14;101453.69;5061957;28;20535;-58
2022/01/16 04:38:48;;;;;;;29.83;11.02;;;;;;;-1.06;88.25;101451.94;5062294;28;20489;-58
2022/01/16 04:44:01;;;;;;;25.70;10.30;;;;;;;-1.03;88.61;101446.16;5062187;28;20404;-58
2022/01/16 04:46:30;;;;;;;20.60;8.57;;;;;;;-1.02;88.59;101445.38;5061054;28;20041;-58
2022/01/16 04:48:59;;;;;;;25.75;9.27;;;;;;;-1.03;88.37;101446.16;5054490;28;20048;-58
2022/01/16 04:51:28;;;;;;;20.98;8.77;;;;;;;-1.04;88.52;101429.13;5055433;28;20052;-58
2022/01/16 04:53:56;;;;;;;22.92;8.23;;;;;;;-1.04;88.51;101427.47;5057919;28;20073;-58
2022/01/16 04:56:24;;;;;;;24.67;9.68;;;;;;;-1.03;88.49;101423.25;5057742;28;20063;-58
2022/01/16 04:58:51;;;;;;;23.17;9.77;;;;;;;-1.02;88.60;101412.28;5057781;28;20032;-58
2022/01/16 05:01:18;;;;;;;28.02;10.05;;;;;;;-1.02;88.45;101409.75;5056557;28;20088;-58
2022/01/16 05:03:46;;;;;;;25.88;10.23;;;;;;;-1.00;88.66;101403.06;5055014;28;20496;-58
2022/01/16 05:06:14;;;;;;;23.98;9.48;;;;;;;-1.00;88.95;101397.97;5057205;28;20957;-58
2022/01/16 05:08:41;;;;;;;22.35;9.18;;;;;;;-1.00;88.72;101406.47;5056775;28;20084;-58
2022/01/16 05:11:11;;;;;;;28.60;10.07;;;;;;;-0.99;88.76;101409.91;5060984;28;20547;-58
2022/01/16 05:16:37;;;;;;;27.08;10.07;;;;;;;-1.01;89.31;101402.19;5057735;28;20247;-58
2022/01/16 05:19:08;;;;;;;24.02;10.38;;;;;;;-1.01;89.28;101386.03;5058157;28;20060;-58
2022/01/16 05:21:36;;;;;;;24.52;9.90;;;;;;;-1.02;89.34;101389.38;5062925;28;20059;-58
2022/01/16 05:24:08;;;;;;;25.33;10.13;;;;;;;-1.01;89.57;101380.94;5065783;28;20051;-58
2022/01/16 05:26:37;;;;;;;26.80;11.75;;;;;;;-1.00;89.58;101387.78;5060177;28;20054;-58
2022/01/16 05:29:05;;;;;;;24.77;9.43;;;;;;;-1.02;89.73;101379.22;5058124;28;20080;-58
2022/01/16 05:31:32;;;;;;;25.73;10.50;;;;;;;-1.05;89.84;101376.47;5062733;28;20474;-58
2022/01/16 05:33:59;;;;;;;24.35;9.77;;;;;;;-1.04;89.90;101374.03;5063555;28;20057;-58
2022/01/16 05:36:26;;;;;;;26.50;10.18;;;;;;;-1.05;90.16;101381.56;5065480;28;20051;-58
2022/01/16 05:38:54;;;;;;;24.15;9.77;;;;;;;-1.06;90.08;101372.19;5060459;28;20398;-58
2022/01/16 05:41:22;;;;;;;23.92;9.40;;;;;;;-1.06;89.83;101356.94;5056368;28;20413;-58
2022/01/16 05:43:52;;;;;;;26.25;9.77;;;;;;;-1.06;90.00;101362.00;5058015;28;20056;-58
2022/01/16 05:46:19;;;;;;;22.55;8.10;;;;;;;-1.11;90.62;101338.03;5057100;28;20063;-58
2022/01/16 05:48:46;;;;;;;25.90;9.10;;;;;;;-1.11;90.60;101343.13;5062194;28;20056;-58
2022/01/16 05:51:14;;;;;;;26.63;8.63;;;;;;;-1.11;90.63;101348.19;5066021;28;20056;-58
2022/01/16 05:53:44;;;;;;;21.88;7.97;;;;;;;-1.09;90.62;101356.78;5059275;28;20057;-58
2022/01/16 05:56:11;;;;;;;20.83;9.23;;;;;;;-1.10;90.35;101345.72;5060591;28;20565;-58
2022/01/16 05:58:38;;;;;;;20.55;8.75;;;;;;;-1.09;90.59;101336.44;5056851;28;20437;-58
2022/01/16 06:01:07;;;;;;;19.85;9.52;;;;;;;-1.09;90.94;101337.28;5058233;28;20057;-58
2022/01/16 06:03:34;;;;;;;20.95;8.27;;;;;;;-1.08;90.78;101338.16;5063633;28;20418;-59
2022/01/16 06:06:01;;;;;;;21.75;7.85;;;;;;;-1.06;90.92;101329.81;5058658;28;20493;-59
2022/01/16 06:08:28;;;;;;;22.50;9.45;;;;;;;-1.04;90.81;101319.69;5058663;28;21926;-59
2022/01/16 06:10:56;;;;;;;26.55;9.23;;;;;;;-1.01;90.98;101330.06;5058791;28;20501;-59
2022/01/16 06:13:24;;;;;;;23.25;8.13;;;;;;;-1.00;90.91;101316.53;5055169;28;20516;-58
2022/01/16 06:15:51;;;;;;;19.55;8.38;;;;;;;-0.99;90.94;101331.00;5056601;28;20766;-58
2022/01/16 06:18:20;;;;;;;23.75;8.57;;;;;;;-1.01;90.68;101337.69;5056930;28;20036;-58
2022/01/16 06:20:47;;;;;;;21.10;8.70;;;;;;;-0.99;90.79;101334.41;5056135;28;20382;-58
2022/01/16 06:23:16;;;;;;;22.27;8.38;;;;;;;-0.98;90.76;101322.56;5058158;28;20052;-58
2022/01/16 06:25:44;;;;;;;21.45;8.00;;;;;;;-0.98;91.00;101317.47;5064017;28;20052;-58
2022/01/16 06:28:11;;;;;;;19.73;8.50;;;;;;;-0.97;90.76;101321.78;5066711;28;20542;-58
2022/01/16 06:30:38;;;;;;;19.25;8.75;;;;;;;-0.97;90.84;101320.09;5059394;28;20057;-58
2022/01/16 06:33:06;;;;;;;19.83;7.88;;;;;;;-0.98;91.03;101314.94;5057163;28;20060;-58
2022/01/16 06:35:35;;;;;;;24.80;8.48;;;;;;;-0.98;91.13;101309.84;5056051;28;20056;-58
2022/01/16 06:38:02;;;;;;;21.55;8.20;;;;;;;-0.97;91.35;101316.69;5057228;28;20058;-58
2022/01/16 06:40:29;;;;;;;22.50;7.85;;;;;;;-0.99;91.13;101308.09;5056207;28;20067;-58
2022/01/16 06:42:56;;;;;;;22.98;9.25;;;;;;;-1.01;91.12;101309.69;5056301;28;20528;-59
2022/01/16 06:45:23;;;;;;;20.23;8.55;;;;;;;-1.01;91.53;101310.56;5065018;28;20418;-60
2022/01/16 06:47:51;;;;;;;19.23;8.18;;;;;;;-1.01;91.59;101307.16;5062179;28;20057;-60
2022/01/16 06:50:19;;;;;;;23.90;9.27;;;;;;;-1.03;91.70;101308.75;5054182;28;20448;-59
2022/01/16 06:52:47;;;;;;;18.42;7.82;;;;;;;-1.01;91.91;101299.53;5055007;28;20067;-58
2022/01/16 06:55:15;;;;;;;20.42;8.43;;;;;;;-1.04;91.80;101294.25;5063681;28;20048;-58
2022/01/16 06:57:42;;;;;;;19.80;8.77;;;;;;;-1.05;91.96;101292.50;5060268;28;20055;-57
2022/01/16 07:00:10;;;;;;;21.80;9.18;;;;;;;-1.05;91.99;101287.44;5055438;28;20052;-55
2022/01/16 07:02:37;;;;;;;24.17;9.55;;;;;;;-1.03;92.19;101290.94;5061595;28;20049;-56
2022/01/16 07:05:06;;;;;;;20.85;8.48;;;;;;;-1.01;92.30;101294.44;5063008;28;20113;-52
2022/01/16 07:07:33;;;;;;;20.58;9.63;;;;;;;-1.02;92.24;101292.69;5053330;28;20049;-59
2022/01/16 07:10:03;;;;;;;23.17;9.95;;;;;;;-1.00;92.38;101291.09;5053988;28;20053;-56
2022/01/16 07:12:30;;;;;;;31.48;9.63;;;;;;;-1.00;91.83;101301.25;5059798;28;20063;-57
2022/01/16 07:14:57;;;;;;;27.40;10.05;;;;;;;-1.02;92.30;101285.06;5069289;28;20063;-54
2022/01/16 07:17:24;;;;;;;25.52;9.23;;;;;;;-1.03;92.19;101296.03;5062993;28;20114;-55
2022/01/16 07:19:51;;;;;;;22.70;8.68;;;;;;;-1.03;92.49;101296.03;5059187;28;20056;-54
2022/01/16 07:22:21;;;;;;;18.77;9.45;;;;;;;-1.03;92.60;101290.94;5055002;28;20060;-54
2022/01/16 07:24:48;;;;;;;22.15;9.18;;;;;;;-1.02;92.57;101287.59;5055093;28;20063;-56
2022/01/16 07:27:17;;;;;;;24.00;9.63;;;;;;;-1.01;92.36;101291.88;5054721;28;20064;-57
2022/01/16 07:29:44;;;;;;;21.63;9.20;;;;;;;-1.03;92.61;101289.28;5054360;28;20121;-56
2022/01/16 07:32:11;;;;;;;22.98;9.30;;;;;;;-1.02;92.50;101280.84;5052846;28;20055;-55
2022/01/16 07:34:38;;;;;;;20.70;9.02;;;;;;;-0.98;92.95;101281.84;5053475;28;20052;-54
2022/01/16 07:37:05;;;;;;;22.88;9.02;;;;;;;-0.98;92.62;101279.31;5054843;28;20075;-54
2022/01/16 07:39:33;;;;;;;22.80;9.35;;;;;;;-0.96;92.59;101277.69;5054510;28;20044;-54
2022/01/16 07:42:00;;;;;;;24.88;10.93;;;;;;;-0.96;92.62;101272.63;5054856;28;20047;-52
2022/01/16 07:44:28;;;;;;;32.42;10.52;;;;;;;-0.98;92.58;101271.66;5057216;28;20057;-57
2022/01/16 07:46:55;;;;;;;29.67;10.60;;;;;;;-0.94;92.80;101275.22;5060012;28;20144;-54
2022/01/16 07:49:23;;;;;;;24.55;9.50;;;;;;;-0.92;92.41;101273.63;5053967;28;20482;-55
2022/01/16 07:51:50;;;;;;;27.02;10.38;;;;;;;-0.90;92.83;101283.06;5052242;28;20048;-54
2022/01/16 07:54:18;;;;;;;30.55;10.27;;;;;;;-0.90;92.85;101287.28;5052876;28;20060;-49
2022/01/16 07:56:46;;;;;;;26.17;10.27;;;;;;;-0.89;92.27;101282.28;5053148;28;20052;-55
2022/01/16 07:59:13;;;;;;;35.17;10.35;;;;;;;-0.88;92.72;101286.56;5055228;28;20481;-54
2022/01/16 08:01:42;;;;;;;21.30;10.32;;;;;;;-0.86;92.29;101284.97;5063125;28;20052;-53
2022/01/16 08:04:09;;;;;;;25.08;10.07;;;;;;;-0.83;92.30;101284.22;5060948;28;20048;-49
2022/01/16 08:06:36;;;;;;;21.65;8.63;;;;;;;-0.82;92.50;101280.88;5068961;28;20052;-48
2022/01/16 08:09:03;;;;;;;23.48;9.55;;;;;;;-0.82;92.23;101281.75;5072273;28;20048;-48
2022/01/16 08:11:30;;;;;;;27.35;10.43;;;;;;;-0.80;92.08;101280.16;5065887;28;20048;-52
2022/01/16 08:13:58;;;;;;;24.77;10.52;;;;;;;-0.79;92.33;101271.72;5064219;28;20060;-49
2022/01/16 08:16:25;;;;;;;28.33;11.63;;;;;;;-0.80;92.18;101264.88;5068211;28;20071;-51
2022/01/16 08:18:54;;;;;;;23.50;11.70;;;;;;;-0.78;92.22;101258.19;5070785;28;20093;-50
2022/01/16 08:21:21;;;;;;;26.50;11.05;;;;;;;-0.77;92.30;101259.06;5064194;28;20056;-56
2022/01/16 08:23:48;;;;;;;27.58;10.32;;;;;;;-0.74;92.13;101265.16;5062216;28;20481;-55
2022/01/16 08:26:15;;;;;;;28.83;10.50;;;;;;;-0.73;91.84;101254.16;5055927;28;20413;-54
2022/01/16 08:28:43;;;;;;;24.23;10.00;;;;;;;-0.70;91.67;101250.88;5056680;28;20060;-57
2022/01/16 08:31:10;;;;;;;26.38;9.63;;;;;;;-0.67;91.74;101251.91;5053167;28;20056;-48
2022/01/16 08:33:38;;;;;;;23.83;10.52;;;;;;;-0.63;91.65;101251.22;5052920;28;20048;-50
2022/01/16 08:36:07;;;;;;;25.65;9.93;;;;;;;-0.60;91.79;101241.97;5051638;28;20102;-54
2022/01/16 08:38:34;;;;;;;25.67;10.80;;;;;;;-0.58;91.29;101233.59;5051374;28;20063;-58
2022/01/16 08:41:02;;;;;;;24.33;10.93;;;;;;;-0.56;91.23;101234.53;5050649;28;20061;-51
2022/01/16 08:43:30;;;;;;;29.45;10.45;;;;;;;-0.53;91.19;101233.81;5052326;28;20161;-56
2022/01/16 08:45:57;;;;;;;25.42;10.02;;;;;;;-0.51;91.21;101224.59;5057902;28;20494;-57
2022/01/16 08:48:24;;;;;;;24.67;9.30;;;;;;;-0.51;91.25;101239.88;5058304;28;20075;-55
2022/01/16 08:50:51;;;;;;;25.35;9.35;;;;;;;-0.51;90.95;101232.22;5051857;28;20066;-55
2022/01/16 08:53:20;;;;;;;27.55;9.90;;;;;;;-0.50;91.10;101216.16;5052431;28;20110;-52
2022/01/16 08:55:47;;;;;;;22.52;9.73;;;;;;;-0.48;90.99;101217.09;5059980;28;20052;-56
2022/01/16 08:58:15;;;;;;;23.42;9.50;;;;;;;-0.44;90.91;101203.69;5058842;28;20413;-58
2022/01/16 09:00:43;;;;;;;24.20;8.60;;;;;;;-0.44;90.60;101199.44;5056119;28;20063;-52
2022/01/16 09:03:10;;;;;;;26.02;9.77;;;;;;;-0.41;90.67;101196.16;5061911;28;20427;-50
2022/01/16 09:05:38;;;;;;;24.02;9.38;;;;;;;-0.37;90.53;101187.84;5057959;28;20674;-57
2022/01/16 09:08:05;;;;;;;23.17;10.75;;;;;;;-0.35;90.30;101174.38;5059054;28;20406;-59
2022/01/16 09:10:34;;;;;;;20.90;9.45;;;;;;;-0.33;90.21;101167.66;5056918;28;20502;-57
2022/01/16 09:13:01;;;;;;;24.85;9.65;;;;;;;-0.30;89.91;101171.16;5065196;28;20088;-56
2022/01/16 09:15:28;;;;;;;26.17;10.05;;;;;;;-0.26;89.99;101161.16;5062940;28;20125;-57
2022/01/16 09:17:55;;;;;;;23.85;9.30;;;;;;;-0.21;90.04;101154.56;5067135;28;20392;-56
2022/01/16 09:20:23;;;;;;;24.30;9.63;;;;;;;-0.18;89.81;101152.16;5058241;28;20044;-58
2022/01/16 09:22:50;;;;;;;24.63;9.55;;;;;;;-0.17;89.08;101153.88;5064253;28;20048;-58
2022/01/16 09:25:19;;;;;;;23.67;9.45;;;;;;;-0.14;89.43;101138.72;5056117;28;20102;-54
2022/01/16 09:27:48;;;;;;;22.35;10.10;;;;;;;-0.09;89.26;101132.13;5057234;28;20060;-58
2022/01/16 09:30:15;;;;;;;25.98;10.63;;;;;;;-0.05;89.19;101128.91;5057334;28;21933;-57
2022/01/16 09:32:43;;;;;;;25.67;10.38;;;;;;;-0.01;89.13;101125.66;5067737;28;20056;-60
2022/01/16 09:35:11;;;;;;;24.48;9.77;;;;;;;0.00;88.69;101121.47;5058294;28;20061;-52
2022/01/16 09:37:39;;;;;;;22.33;8.77;;;;;;;0.02;88.38;101109.66;5057367;28;20056;-58
2022/01/16 09:40:08;;;;;;;21.15;9.20;;;;;;;0.04;88.04;101092.75;5057490;28;20094;-51
2022/01/16 09:42:36;;;;;;;21.23;9.18;;;;;;;0.08;88.00;101096.28;5055949;28;20059;-54
2022/01/16 09:45:08;;;;;;;22.02;8.32;;;;;;;0.10;87.64;101097.22;5055588;28;20056;-57
2022/01/16 09:47:35;;;;;;;24.00;10.10;;;;;;;0.11;87.60;101088.75;5056866;28;20079;-59
2022/01/16 09:50:04;;;;;;;22.33;8.93;;;;;;;0.14;87.46;101078.66;5065137;28;20309;-55
2022/01/16 09:52:35;;;;;;;20.42;8.88;;;;;;;0.18;87.39;101075.44;5061047;28;20148;-59
2022/01/16 09:55:02;;;;;;;28.08;10.07;;;;;;;0.20;86.73;101073.81;5058261;28;20464;-58
2022/01/16 09:57:29;;;;;;;27.65;10.02;;;;;;;0.23;87.06;101063.72;5058645;28;20053;-58
2022/01/16 09:59:56;;;;;;;28.48;9.55;;;;;;;0.25;86.84;101059.56;5057256;28;21784;-59
2022/01/16 10:02:25;;;;;;;27.98;8.82;;;;;;;0.24;86.52;101056.13;5055743;28;20628;-59
2022/01/16 10:04:53;;;;;;;28.98;9.20;;;;;;;0.29;86.44;101063.97;5057477;28;20044;-55
2022/01/16 10:07:21;;;;;;;21.10;8.05;;;;;;;0.32;86.15;101059.84;5057302;28;20048;-60
2022/01/16 10:10:06;;;;;;;21.80;9.13;;;;;;;0.36;85.90;101050.63;5055289;28;21934;-58
2022/01/16 10:12:34;;;;;;;26.77;9.10;;;;;;;0.39;85.66;101057.53;5056671;28;20345;-57
2022/01/16 10:15:17;;;;;;;28.80;8.73;;;;;;;0.39;85.04;101049.88;5057162;28;20048;-53
2022/01/16 10:17:49;;;;;;;25.42;8.65;;;;;;;0.36;84.87;101050.63;5061590;28;21033;-56
2022/01/16 10:20:17;;;;;;;24.23;7.88;;;;;;;0.39;84.75;101052.44;5054944;28;20049;-59
2022/01/16 10:22:46;;;;;;;23.08;7.85;;;;;;;0.43;85.21;101061.94;5057306;28;20125;-56
2022/01/16 10:25:15;;;;;;;20.50;7.25;;;;;;;0.45;84.68;101065.41;5057420;28;20057;-60
2022/01/16 10:27:44;;;;;;;22.42;7.95;;;;;;;0.46;84.51;101057.81;5065764;28;20388;-57
2022/01/16 10:30:14;;;;;;;25.38;7.95;;;;;;;0.43;84.07;101052.59;5061435;28;20467;-60
2022/01/16 10:32:43;;;;;;;20.50;8.07;;;;;;;0.41;84.12;101044.03;5058373;28;20048;-60
2022/01/16 10:35:15;;;;;;;25.08;8.00;;;;;;;0.43;84.08;101042.41;5057419;28;20051;-60
2022/01/16 10:37:44;;;;;;;21.60;8.73;;;;;;;0.39;83.98;101030.34;5059300;28;20735;-60
2022/01/16 10:40:15;;;;;;;26.42;7.78;;;;;;;0.42;83.97;101035.56;5057103;28;20431;-52
2022/01/16 10:42:49;;;;;;;27.42;8.38;;;;;;;0.43;84.02;101027.09;5059419;28;20493;-50
2022/01/16 10:45:17;;;;;;;23.98;8.60;;;;;;;0.43;83.93;101027.09;5058934;28;20429;-58
2022/01/16 10:47:47;;;;;;;26.52;8.75;;;;;;;0.44;84.01;101013.53;5057269;28;20048;-57
2022/01/16 10:50:21;;;;;;;20.98;8.68;;;;;;;0.44;83.73;101007.56;5059360;28;20044;-56
2022/01/16 10:52:55;;;;;;;28.70;8.40;;;;;;;0.43;83.77;101011.78;5056331;28;20044;-57
2022/01/16 10:55:25;;;;;;;20.52;8.55;;;;;;;0.44;84.04;100998.22;5057539;28;20060;-59
2022/01/16 10:58:01;;;;;;;23.63;8.27;;;;;;;0.44;83.94;100987.16;5052476;28;20064;-56
2022/01/16 11:00:29;;;;;;;27.77;9.48;;;;;;;0.46;83.79;100986.41;5054979;28;20080;-50
2022/01/16 11:03:00;;;;;;;40.75;9.52;;;;;;;0.47;83.81;100983.03;5061058;28;20101;-54
2022/01/16 11:05:34;;;;;;;24.15;9.15;;;;;;;0.45;83.52;100981.25;5052260;28;21078;-54
2022/01/16 11:08:02;;;;;;;22.00;8.48;;;;;;;0.45;83.01;100984.66;5055355;28;20056;-60
2022/01/16 11:10:32;;;;;;;23.20;8.25;;;;;;;0.46;82.86;100986.41;5056373;28;20049;-54
2022/01/16 11:13:01;;;;;;;28.02;9.45;;;;;;;0.49;83.04;100970.34;5059608;28;20055;-55
2022/01/16 11:15:30;;;;;;;24.77;9.27;;;;;;;0.51;82.97;100969.56;5054951;28;20066;-56
2022/01/16 11:17:58;;;;;;;20.75;9.18;;;;;;;0.55;82.80;100960.38;5060877;28;20056;-57
2022/01/16 11:20:31;;;;;;;23.92;9.02;;;;;;;0.54;82.52;100954.41;5056356;28;20593;-57
2022/01/16 11:23:07;;;;;;;23.75;9.35;;;;;;;0.53;82.60;100949.25;5055305;28;20083;-58
2022/01/16 11:25:38;;;;;;;21.73;9.02;;;;;;;0.54;82.55;100954.41;5057846;28;20429;-51
2022/01/16 11:28:11;;;;;;;26.17;9.50;;;;;;;0.57;82.69;100949.41;5061054;28;20416;-53
2022/01/16 11:30:42;;;;;;;30.80;9.52;;;;;;;0.60;82.41;100949.53;5059214;28;20048;-59
2022/01/16 11:33:09;;;;;;;19.77;8.20;;;;;;;0.65;82.38;100946.25;5059953;28;20052;-54
2022/01/16 11:35:43;;;;;;;23.75;9.50;;;;;;;0.69;82.52;100941.31;5054404;28;20076;-54
2022/01/16 11:38:13;;;;;;;31.08;9.13;;;;;;;0.73;82.14;100942.28;5054127;28;20053;-58
2022/01/16 11:40:48;;;;;;;23.85;9.38;;;;;;;0.77;81.65;100941.56;5053394;28;21079;-54
2022/01/16 11:43:34;;;;;;;21.05;8.60;;;;;;;0.80;81.49;100936.56;5065797;28;20082;-58
2022/01/16 11:46:10;;;;;;;22.93;8.30;;;;;;;0.82;81.28;100945.16;5060948;28;20486;-57
2022/01/16 11:48:43;;;;;;;21.38;7.28;;;;;;;0.80;80.72;100931.47;5055065;28;20049;-50
2022/01/16 11:51:49;;;;;;;18.33;7.60;;;;;;;0.78;80.50;100928.00;5055162;28;20049;-56
2022/01/16 11:54:22;;;;;;;23.00;7.57;;;;;;;0.79;80.48;100919.53;5052606;28;20059;-55
2022/01/16 11:56:51;;;;;;;22.05;8.20;;;;;;;0.78;80.56;100913.56;5061111;28;20045;-58